Time;durP1;ratioP1;P1;durP2;ratioP2;P2;SDS_P1;SDS_P2;PMS_P1;PMS_P2;Temp;Humidity;BMP_temperature;BMP_pressure;BME280_temperature;BME280_humidity;BME280_pressure;Samples;Min_cycle;Max_cycle;Signal;HPM_P1;HPM_P2
2023/05/18 00:01:13;;;;;;;9.23;2.33;;;;;;;;;;5029506;28;20178;-69
2023/05/18 00:03:40;;;;;;;7.53;2.43;;;;;;;;;;5025409;28;20517;-69
2023/05/18 00:06:06;;;;;;;5.00;2.37;;;;;;;;;;5022643;28;20202;-69
2023/05/18 00:08:33;;;;;;;7.80;2.40;;;;;;;;;;5033034;28;20588;-69
2023/05/18 00:10:59;;;;;;;6.67;2.27;;;;;;;;;;5031999;28;20586;-69
2023/05/18 00:13:25;;;;;;;7.27;2.97;;;;;;;;;;5027341;28;20265;-69
2023/05/18 00:15:52;;;;;;;7.33;2.47;;;;;;;;;;5026231;28;20199;-68
2023/05/18 00:18:22;;;;;;;8.20;2.63;;;;;;;;;;5027993;28;20197;-68
2023/05/18 00:20:49;;;;;;;6.40;2.47;;;;;;;;;;5029732;28;20878;-68
2023/05/18 00:23:15;;;;;;;4.97;2.23;;;;;;;;;;5024049;28;20205;-68
2023/05/18 00:25:41;;;;;;;5.63;2.40;;;;;;;;;;5013361;28;20304;-69
2023/05/18 00:28:08;;;;;;;9.80;2.73;;;;;;;;;;4997624;28;20277;-68
2023/05/18 00:30:34;;;;;;;7.20;2.53;;;;;;;;;;5013384;28;20217;-68
2023/05/18 00:33:00;;;;;;;6.23;2.40;;;;;;;;;;5030785;28;20235;-68
2023/05/18 00:35:26;;;;;;;8.00;2.80;;;;;;;;;;5020562;28;20294;-68
2023/05/18 00:37:52;;;;;;;8.13;2.77;;;;;;;;;;5030497;28;20251;-68
2023/05/18 00:40:25;;;;;;;6.80;2.43;;;;;;;;;;5029786;28;20658;-68
2023/05/18 00:42:51;;;;;;;7.03;2.40;;;;;;;;;;5009255;28;20646;-68
2023/05/18 00:45:18;;;;;;;4.50;2.27;;;;;;;;;;5018542;28;20189;-68
2023/05/18 00:47:44;;;;;;;8.67;2.33;;;;;;;;;;5013430;28;20337;-68
2023/05/18 00:50:11;;;;;;;8.13;2.50;;;;;;;;;;5030105;28;20191;-68
2023/05/18 00:52:38;;;;;;;7.43;2.30;;;;;;;;;;5004956;28;20319;-68
2023/05/18 00:55:05;;;;;;;7.73;2.40;;;;;;;;;;5030880;28;20277;-68
2023/05/18 00:57:32;;;;;;;10.70;2.40;;;;;;;;;;5013326;28;20222;-68
2023/05/18 00:59:59;;;;;;;5.40;2.20;;;;;;;;;;5031103;28;20183;-68
2023/05/18 01:02:28;;;;;;;7.83;2.63;;;;;;;;;;5030792;28;20197;-68
2023/05/18 01:04:55;;;;;;;4.97;2.10;;;;;;;;;;5013637;28;20563;-68
2023/05/18 01:07:25;;;;;;;5.90;2.40;;;;;;;;;;5030102;28;20199;-68
2023/05/18 01:09:54;;;;;;;6.67;2.13;;;;;;;;;;5030629;28;20265;-68
2023/05/18 01:12:25;;;;;;;5.90;2.40;;;;;;;;;;5030448;28;20252;-68
2023/05/18 01:15:00;;;;;;;8.13;2.23;;;;;;;;;;4996728;28;20273;-68
2023/05/18 01:17:46;;;;;;;7.33;2.50;;;;;;;;;;5030770;28;20291;-69
2023/05/18 01:20:17;;;;;;;7.37;2.43;;;;;;;;;;5011026;28;20269;-68
2023/05/18 01:23:02;;;;;;;5.53;2.10;;;;;;;;;;5007555;28;20179;-68
2023/05/18 01:25:53;;;;;;;11.30;2.90;;;;;;;;;;5028561;28;20275;-68
2023/05/18 01:28:25;;;;;;;10.50;2.27;;;;;;;;;;5029188;28;20262;-68
2023/05/18 01:30:53;;;;;;;7.37;2.27;;;;;;;;;;5028693;28;20189;-68
2023/05/18 01:33:19;;;;;;;9.57;2.60;;;;;;;;;;5013082;28;20186;-68
2023/05/18 01:35:48;;;;;;;6.27;2.43;;;;;;;;;;5029611;28;20233;-68
2023/05/18 01:38:19;;;;;;;9.00;2.40;;;;;;;;;;5030192;28;20218;-68
2023/05/18 01:40:50;;;;;;;7.93;2.43;;;;;;;;;;5027550;28;20193;-68
2023/05/18 01:43:18;;;;;;;10.03;2.70;;;;;;;;;;5012790;28;20171;-68
2023/05/18 01:45:45;;;;;;;6.40;2.23;;;;;;;;;;5012838;28;20202;-68
2023/05/18 01:48:15;;;;;;;6.17;2.67;;;;;;;;;;5030636;28;20186;-68
2023/05/18 01:50:45;;;;;;;5.80;2.57;;;;;;;;;;5012568;28;20237;-69
2023/05/18 01:53:11;;;;;;;11.80;2.83;;;;;;;;;;5012894;28;20197;-68
2023/05/18 01:55:38;;;;;;;11.27;2.60;;;;;;;;;;5012718;28;20191;-69
2023/05/18 01:58:06;;;;;;;8.20;2.30;;;;;;;;;;5007340;28;20237;-68
2023/05/18 02:00:32;;;;;;;7.60;2.60;;;;;;;;;;5029665;28;20179;-68
2023/05/18 02:02:59;;;;;;;7.30;2.80;;;;;;;;;;5030142;28;20186;-68
2023/05/18 02:05:25;;;;;;;6.07;2.37;;;;;;;;;;5027206;28;20178;-69
2023/05/18 02:07:52;;;;;;;10.13;2.80;;;;;;;;;;4980295;28;20281;-68
2023/05/18 02:10:18;;;;;;;5.70;2.40;;;;;;;;;;5028939;28;20186;-68
2023/05/18 02:12:47;;;;;;;7.70;2.60;;;;;;;;;;5013404;28;20190;-69
2023/05/18 02:15:14;;;;;;;6.37;2.93;;;;;;;;;;5012409;28;20233;-68
2023/05/18 02:17:40;;;;;;;9.77;2.70;;;;;;;;;;5016111;28;20214;-68
2023/05/18 02:20:10;;;;;;;9.33;2.57;;;;;;;;;;5014384;28;20182;-69
2023/05/18 02:22:37;;;;;;;7.67;3.00;;;;;;;;;;5033500;28;20198;-68
2023/05/18 02:25:06;;;;;;;9.53;2.97;;;;;;;;;;5015500;28;20184;-68
2023/05/18 02:27:33;;;;;;;6.27;2.37;;;;;;;;;;4996088;28;20333;-68
2023/05/18 02:30:02;;;;;;;9.30;2.83;;;;;;;;;;5012570;28;20183;-68
2023/05/18 02:32:31;;;;;;;9.30;2.97;;;;;;;;;;4980431;28;20210;-68
2023/05/18 02:35:01;;;;;;;8.20;2.90;;;;;;;;;;5013989;28;20594;-69
2023/05/18 02:37:27;;;;;;;9.10;2.80;;;;;;;;;;5013235;28;20222;-68
2023/05/18 02:39:53;;;;;;;5.97;2.60;;;;;;;;;;4995547;28;20241;-68
2023/05/18 02:42:19;;;;;;;8.60;2.50;;;;;;;;;;4995764;28;20191;-68
2023/05/18 02:44:46;;;;;;;7.13;2.63;;;;;;;;;;4995175;28;20559;-68
2023/05/18 02:47:15;;;;;;;9.63;2.93;;;;;;;;;;4995879;28;20235;-68
2023/05/18 02:49:41;;;;;;;5.73;2.53;;;;;;;;;;4996052;28;20186;-68
2023/05/18 02:52:08;;;;;;;5.40;2.30;;;;;;;;;;4995465;28;20214;-68
2023/05/18 02:54:34;;;;;;;7.27;2.53;;;;;;;;;;5005302;28;20278;-69
2023/05/18 02:57:02;;;;;;;7.90;2.90;;;;;;;;;;4995203;28;20215;-68
2023/05/18 02:59:43;;;;;;;7.90;2.73;;;;;;;;;;4979705;28;20187;-68
2023/05/18 03:02:13;;;;;;;7.23;2.70;;;;;;;;;;4994553;28;20184;-68
2023/05/18 03:04:40;;;;;;;6.57;2.80;;;;;;;;;;4995710;28;20677;-68
2023/05/18 03:07:06;;;;;;;10.70;3.10;;;;;;;;;;5013330;28;20202;-68
2023/05/18 03:09:33;;;;;;;6.53;2.70;;;;;;;;;;4995995;28;20671;-68
2023/05/18 03:12:00;;;;;;;7.97;2.70;;;;;;;;;;5012482;28;20199;-68
2023/05/18 03:14:26;;;;;;;6.70;2.70;;;;;;;;;;5011618;28;20238;-68
2023/05/18 03:16:56;;;;;;;7.13;2.90;;;;;;;;;;4992703;28;20226;-68
2023/05/18 03:19:23;;;;;;;5.47;2.70;;;;;;;;;;4995187;28;20206;-68
2023/05/18 03:21:49;;;;;;;6.83;2.60;;;;;;;;;;5012464;28;20667;-68
2023/05/18 03:24:16;;;;;;;8.13;2.87;;;;;;;;;;4995529;28;20200;-69
2023/05/18 03:26:46;;;;;;;7.93;2.70;;;;;;;;;;5007787;28;20225;-68
2023/05/18 03:29:12;;;;;;;7.90;2.70;;;;;;;;;;5031113;28;20175;-68
2023/05/18 03:31:39;;;;;;;6.20;2.73;;;;;;;;;;5033001;28;20266;-68
2023/05/18 03:34:06;;;;;;;12.50;3.00;;;;;;;;;;5014530;28;20240;-68
2023/05/18 03:36:32;;;;;;;4.43;2.30;;;;;;;;;;5033299;28;20217;-68
2023/05/18 03:38:58;;;;;;;8.20;2.40;;;;;;;;;;5014828;28;20186;-68
2023/05/18 03:41:25;;;;;;;9.43;2.83;;;;;;;;;;5015134;28;20273;-69
2023/05/18 03:43:53;;;;;;;7.50;2.60;;;;;;;;;;5014232;28;20214;-68
2023/05/18 03:46:19;;;;;;;11.43;2.90;;;;;;;;;;5031982;28;20194;-68
2023/05/18 03:48:45;;;;;;;5.90;2.70;;;;;;;;;;5014195;28;20261;-68
2023/05/18 03:51:13;;;;;;;6.83;2.70;;;;;;;;;;4995020;28;20188;-68
2023/05/18 03:53:39;;;;;;;8.03;2.53;;;;;;;;;;5011041;28;20191;-68
2023/05/18 03:56:06;;;;;;;6.33;2.60;;;;;;;;;;5032497;28;20691;-68
2023/05/18 03:58:32;;;;;;;12.40;2.73;;;;;;;;;;5014497;28;20186;-68
2023/05/18 04:00:59;;;;;;;7.17;2.60;;;;;;;;;;5014091;28;20790;-68
2023/05/18 04:03:26;;;;;;;8.67;2.80;;;;;;;;;;5013987;28;20186;-69
2023/05/18 04:05:52;;;;;;;11.37;2.70;;;;;;;;;;5014141;28;20198;-69
2023/05/18 04:08:19;;;;;;;6.57;2.37;;;;;;;;;;5030661;28;20215;-68
2023/05/18 04:10:45;;;;;;;6.97;2.60;;;;;;;;;;5031687;28;20181;-68
2023/05/18 04:13:11;;;;;;;6.60;2.67;;;;;;;;;;5013564;28;20182;-68
2023/05/18 04:15:38;;;;;;;8.30;2.57;;;;;;;;;;5032100;28;20185;-68
2023/05/18 04:18:04;;;;;;;5.57;2.40;;;;;;;;;;5032164;28;20694;-68
2023/05/18 04:20:30;;;;;;;5.70;2.30;;;;;;;;;;5014257;28;20678;-68
2023/05/18 04:22:56;;;;;;;10.33;2.80;;;;;;;;;;5031844;28;20182;-68
2023/05/18 04:25:26;;;;;;;7.13;2.53;;;;;;;;;;5014224;28;20175;-68
2023/05/18 04:27:53;;;;;;;6.67;2.77;;;;;;;;;;5028939;28;20641;-68
2023/05/18 04:30:23;;;;;;;8.10;2.57;;;;;;;;;;5013707;28;20190;-68
2023/05/18 04:32:50;;;;;;;4.93;2.53;;;;;;;;;;5013607;28;20580;-68
2023/05/18 04:35:17;;;;;;;5.93;2.37;;;;;;;;;;5014061;28;20186;-68
2023/05/18 04:37:44;;;;;;;9.10;2.87;;;;;;;;;;5013839;28;20214;-68
2023/05/18 04:40:16;;;;;;;9.30;2.47;;;;;;;;;;5013206;28;20232;-68
2023/05/18 04:42:46;;;;;;;7.07;2.80;;;;;;;;;;5010459;28;20214;-68
2023/05/18 04:45:18;;;;;;;7.33;2.63;;;;;;;;;;5014310;28;20248;-68
2023/05/18 04:47:45;;;;;;;5.50;2.37;;;;;;;;;;5014534;28;20202;-68
2023/05/18 04:50:15;;;;;;;6.00;2.83;;;;;;;;;;5014113;28;20182;-68
2023/05/18 04:52:46;;;;;;;10.53;3.10;;;;;;;;;;5013918;28;20183;-70
2023/05/18 04:55:13;;;;;;;8.63;3.10;;;;;;;;;;5014081;28;20236;-69
2023/05/18 04:57:40;;;;;;;9.10;2.63;;;;;;;;;;5030701;28;20226;-69
2023/05/18 05:00:08;;;;;;;6.40;2.20;;;;;;;;;;5029898;28;20179;-68
2023/05/18 05:02:35;;;;;;;6.63;2.43;;;;;;;;;;5013095;28;20182;-68
2023/05/18 05:05:01;;;;;;;9.73;3.00;;;;;;;;;;5011199;28;20669;-70
2023/05/18 05:07:28;;;;;;;8.43;2.80;;;;;;;;;;5013172;28;20210;-69
2023/05/18 05:09:54;;;;;;;5.83;2.33;;;;;;;;;;5012983;28;20281;-70
2023/05/18 05:12:20;;;;;;;8.07;2.70;;;;;;;;;;5003829;28;20186;-71
2023/05/18 05:14:46;;;;;;;10.10;2.50;;;;;;;;;;5025701;28;20217;-70
2023/05/18 05:17:13;;;;;;;8.33;2.83;;;;;;;;;;5007046;28;20280;-69
2023/05/18 05:19:41;;;;;;;7.23;2.83;;;;;;;;;;5009970;28;20265;-70
2023/05/18 05:22:07;;;;;;;7.73;2.60;;;;;;;;;;5005188;28;20302;-70
2023/05/18 05:24:34;;;;;;;7.93;2.50;;;;;;;;;;5006906;28;20265;-69
2023/05/18 05:27:01;;;;;;;7.83;2.77;;;;;;;;;;5008148;28;20222;-69
2023/05/18 05:29:29;;;;;;;10.43;2.53;;;;;;;;;;5009674;28;20194;-70
2023/05/18 05:31:57;;;;;;;7.33;2.43;;;;;;;;;;5027692;28;20194;-70
2023/05/18 05:34:23;;;;;;;5.13;2.67;;;;;;;;;;5013598;28;20229;-69
2023/05/18 05:36:50;;;;;;;6.63;2.77;;;;;;;;;;4992668;28;20293;-72
2023/05/18 05:39:16;;;;;;;7.87;2.30;;;;;;;;;;5007176;28;20614;-71
2023/05/18 05:41:42;;;;;;;8.87;2.40;;;;;;;;;;5004607;28;21706;-73
2023/05/18 05:44:08;;;;;;;6.97;2.40;;;;;;;;;;5011373;28;20274;-71
2023/05/18 05:46:35;;;;;;;6.37;2.50;;;;;;;;;;5017241;28;20221;-72
2023/05/18 05:49:01;;;;;;;7.93;2.50;;;;;;;;;;5014258;28;20307;-73
2023/05/18 05:51:28;;;;;;;7.37;2.63;;;;;;;;;;5014389;28;20186;-71
2023/05/18 05:53:54;;;;;;;7.57;2.73;;;;;;;;;;5018912;28;20292;-71
2023/05/18 05:56:21;;;;;;;7.23;2.60;;;;;;;;;;5017365;28;20649;-71
2023/05/18 05:58:47;;;;;;;8.63;2.27;;;;;;;;;;5024314;28;20206;-71
2023/05/18 06:01:14;;;;;;;9.17;2.93;;;;;;;;;;5022417;28;20185;-70
2023/05/18 06:03:40;;;;;;;5.73;2.60;;;;;;;;;;5014112;28;20899;-71
2023/05/18 06:06:07;;;;;;;4.83;2.30;;;;;;;;;;5011186;28;20199;-71
2023/05/18 06:08:34;;;;;;;8.17;2.97;;;;;;;;;;5010216;28;20191;-70
2023/05/18 06:11:00;;;;;;;7.27;2.30;;;;;;;;;;5012330;28;20190;-70
2023/05/18 06:13:26;;;;;;;7.20;2.83;;;;;;;;;;5013039;28;20193;-71
2023/05/18 06:15:55;;;;;;;5.03;2.20;;;;;;;;;;5014125;28;20701;-70
2023/05/18 06:18:22;;;;;;;7.40;2.60;;;;;;;;;;5014175;28;20198;-70
2023/05/18 06:20:50;;;;;;;4.67;2.30;;;;;;;;;;5013530;28;20193;-71
2023/05/18 06:23:21;;;;;;;7.07;2.50;;;;;;;;;;5012747;28;20548;-71
2023/05/18 06:25:59;;;;;;;8.93;2.53;;;;;;;;;;5013529;28;20724;-71
2023/05/18 06:28:45;;;;;;;5.77;2.40;;;;;;;;;;5015558;28;20217;-71
2023/05/18 06:31:23;;;;;;;5.73;2.50;;;;;;;;;;5014348;28;20182;-71
2023/05/18 06:34:01;;;;;;;9.00;2.90;;;;;;;;;;5012883;28;20838;-71
2023/05/18 06:36:27;;;;;;;6.87;2.57;;;;;;;;;;5012787;28;20198;-71
2023/05/18 06:38:53;;;;;;;5.43;2.50;;;;;;;;;;5013629;28;20198;-71
2023/05/18 06:41:21;;;;;;;10.23;3.13;;;;;;;;;;5012395;28;20183;-71
2023/05/18 06:43:47;;;;;;;7.80;2.70;;;;;;;;;;4994852;28;20186;-71
2023/05/18 06:46:22;;;;;;;6.70;2.57;;;;;;;;;;5031352;28;20205;-71
2023/05/18 06:48:52;;;;;;;5.60;2.43;;;;;;;;;;5014075;28;20553;-70
2023/05/18 06:51:19;;;;;;;5.50;2.50;;;;;;;;;;4997177;28;20598;-71
2023/05/18 06:53:46;;;;;;;7.17;2.30;;;;;;;;;;5012090;28;20182;-71
2023/05/18 06:56:13;;;;;;;8.07;2.67;;;;;;;;;;5013230;28;20210;-71
2023/05/18 06:58:42;;;;;;;7.83;2.87;;;;;;;;;;5027297;28;20186;-70
2023/05/18 07:01:09;;;;;;;6.13;2.80;;;;;;;;;;5008919;28;20182;-71
2023/05/18 07:03:36;;;;;;;8.40;2.90;;;;;;;;;;5028634;28;20185;-71
2023/05/18 07:06:03;;;;;;;7.13;2.50;;;;;;;;;;5029758;28;20245;-71
2023/05/18 07:08:29;;;;;;;9.27;2.90;;;;;;;;;;5031340;28;20174;-71
2023/05/18 07:10:56;;;;;;;6.77;2.50;;;;;;;;;;5029922;28;20193;-71
2023/05/18 07:13:23;;;;;;;5.90;2.43;;;;;;;;;;5012533;28;20166;-71
2023/05/18 07:15:50;;;;;;;8.93;3.03;;;;;;;;;;5030287;28;20211;-71
2023/05/18 07:18:16;;;;;;;6.53;2.60;;;;;;;;;;5012875;28;20577;-71
2023/05/18 07:20:42;;;;;;;7.73;2.60;;;;;;;;;;5030485;28;20269;-71
2023/05/18 07:23:08;;;;;;;8.47;2.83;;;;;;;;;;5030342;28;20178;-71
2023/05/18 07:25:35;;;;;;;9.63;3.33;;;;;;;;;;5030385;28;20195;-71
2023/05/18 07:28:01;;;;;;;6.33;2.70;;;;;;;;;;5031003;28;20217;-71
2023/05/18 07:30:27;;;;;;;9.73;2.50;;;;;;;;;;5030602;28;20190;-71
2023/05/18 07:32:55;;;;;;;11.10;2.97;;;;;;;;;;5028648;28;20201;-71
2023/05/18 07:35:25;;;;;;;6.13;2.73;;;;;;;;;;5029951;28;20290;-71
2023/05/18 07:37:52;;;;;;;6.47;2.80;;;;;;;;;;5030023;28;20207;-71
2023/05/18 07:40:19;;;;;;;7.77;2.53;;;;;;;;;;5030527;28;20179;-71
2023/05/18 07:42:45;;;;;;;9.00;2.50;;;;;;;;;;5028017;28;20187;-71
2023/05/18 07:45:12;;;;;;;8.07;2.80;;;;;;;;;;5030113;28;20175;-71
2023/05/18 07:47:38;;;;;;;6.40;2.80;;;;;;;;;;5030597;28;20281;-71
2023/05/18 07:50:05;;;;;;;6.37;2.40;;;;;;;;;;5029403;28;20786;-71
2023/05/18 07:52:31;;;;;;;5.20;2.13;;;;;;;;;;5028665;28;20575;-71
2023/05/18 07:54:57;;;;;;;5.10;2.50;;;;;;;;;;5030417;28;20693;-71
2023/05/18 07:57:24;;;;;;;9.23;3.00;;;;;;;;;;5030462;28;20218;-71
2023/05/18 07:59:50;;;;;;;4.97;2.30;;;;;;;;;;5012099;28;20193;-71
2023/05/18 08:02:18;;;;;;;5.53;2.57;;;;;;;;;;5029271;28;20206;-71
2023/05/18 08:04:45;;;;;;;6.17;2.47;;;;;;;;;;5030208;28;20524;-71
2023/05/18 08:07:11;;;;;;;6.20;2.60;;;;;;;;;;5029541;28;20245;-71
2023/05/18 08:09:37;;;;;;;6.87;2.40;;;;;;;;;;5028119;28;20198;-71
2023/05/18 08:12:04;;;;;;;7.17;2.83;;;;;;;;;;5028754;28;20575;-71
2023/05/18 08:14:30;;;;;;;6.67;2.53;;;;;;;;;;5027739;28;20646;-71
2023/05/18 08:16:57;;;;;;;5.67;2.40;;;;;;;;;;5029597;28;20323;-71
2023/05/18 08:19:23;;;;;;;5.97;2.27;;;;;;;;;;5029323;28;20182;-71
2023/05/18 08:21:49;;;;;;;10.10;2.83;;;;;;;;;;5030156;28;20237;-71
2023/05/18 08:24:16;;;;;;;6.03;2.10;;;;;;;;;;5027509;28;20683;-71
2023/05/18 08:26:42;;;;;;;7.57;2.30;;;;;;;;;;5010933;28;20222;-71
2023/05/18 08:29:11;;;;;;;8.30;2.53;;;;;;;;;;5029774;28;20190;-71
2023/05/18 08:31:37;;;;;;;5.37;2.40;;;;;;;;;;5029052;28;20182;-71
2023/05/18 08:34:04;;;;;;;6.47;2.50;;;;;;;;;;5028344;28;20287;-71
2023/05/18 08:36:31;;;;;;;6.33;2.60;;;;;;;;;;5029350;28;20202;-71
2023/05/18 08:38:58;;;;;;;6.90;2.40;;;;;;;;;;5029344;28;20187;-71
2023/05/18 08:41:43;;;;;;;5.67;2.43;;;;;;;;;;5027389;28;20642;-71
2023/05/18 08:44:19;;;;;;;7.93;2.60;;;;;;;;;;5028326;28;20257;-71
2023/05/18 08:46:49;;;;;;;14.50;2.77;;;;;;;;;;5024726;28;20312;-71
2023/05/18 08:49:20;;;;;;;6.60;2.33;;;;;;;;;;5025610;28;20194;-71
2023/05/18 08:51:57;;;;;;;5.47;2.40;;;;;;;;;;5028007;28;20194;-71
2023/05/18 08:54:23;;;;;;;5.60;2.43;;;;;;;;;;5018604;28;20555;-71
2023/05/18 08:56:51;;;;;;;9.23;2.57;;;;;;;;;;5018412;28;20205;-71
2023/05/18 08:59:19;;;;;;;10.70;2.67;;;;;;;;;;5030259;28;20174;-71
2023/05/18 09:01:46;;;;;;;6.57;2.50;;;;;;;;;;5033643;28;20182;-71
2023/05/18 09:04:12;;;;;;;6.60;2.23;;;;;;;;;;5029428;28;20182;-71
2023/05/18 09:06:38;;;;;;;5.60;2.30;;;;;;;;;;5028113;28;20253;-71
2023/05/18 09:09:05;;;;;;;6.83;2.50;;;;;;;;;;5024838;28;20189;-75
2023/05/18 09:11:32;;;;;;;9.00;2.60;;;;;;;;;;5016281;28;20586;-77
2023/05/18 09:13:59;;;;;;;6.03;2.40;;;;;;;;;;5029969;28;20230;-74
2023/05/18 09:16:26;;;;;;;8.00;2.47;;;;;;;;;;5011488;28;20217;-72
2023/05/18 09:18:52;;;;;;;10.57;2.60;;;;;;;;;;5052790;28;20189;-71
2023/05/18 09:21:18;;;;;;;5.30;2.33;;;;;;;;;;5055413;28;20249;-77
2023/05/18 09:23:44;;;;;;;7.03;2.43;;;;;;;;;;5031390;28;20182;-72
2023/05/18 09:26:12;;;;;;;5.67;2.30;;;;;;;;;;5034312;28;20253;-72
2023/05/18 09:28:42;;;;;;;8.17;2.60;;;;;;;;;;5035187;28;20179;-72
2023/05/18 09:31:17;;;;;;;5.77;2.30;;;;;;;;;;5042945;28;20179;-72
2023/05/18 09:33:43;;;;;;;4.97;2.40;;;;;;;;;;5037127;28;20649;-72
2023/05/18 09:36:11;;;;;;;6.00;2.40;;;;;;;;;;5036817;28;20264;-72
2023/05/18 09:38:45;;;;;;;7.33;2.67;;;;;;;;;;5034748;28;20202;-72
2023/05/18 09:41:15;;;;;;;7.63;2.53;;;;;;;;;;5036474;28;20698;-72
2023/05/18 09:43:42;;;;;;;4.33;2.50;;;;;;;;;;5051561;28;20178;-72
2023/05/18 09:46:10;;;;;;;5.97;2.30;;;;;;;;;;5052712;28;20583;-72
2023/05/18 09:48:37;;;;;;;6.90;2.53;;;;;;;;;;5034702;28;20657;-71
2023/05/18 09:51:06;;;;;;;7.33;2.80;;;;;;;;;;5034555;28;20265;-72
2023/05/18 09:53:36;;;;;;;9.50;3.00;;;;;;;;;;5034230;28;20549;-72
2023/05/18 09:56:08;;;;;;;6.27;2.60;;;;;;;;;;5033916;28;20222;-71
2023/05/18 09:58:35;;;;;;;7.13;2.50;;;;;;;;;;5015250;28;20286;-72
2023/05/18 10:01:01;;;;;;;6.03;2.40;;;;;;;;;;5034042;28;20178;-72
2023/05/18 10:03:31;;;;;;;5.47;2.20;;;;;;;;;;5033574;28;20354;-72
2023/05/18 10:06:00;;;;;;;6.83;2.57;;;;;;;;;;5033600;28;20202;-72
2023/05/18 10:08:27;;;;;;;7.57;2.73;;;;;;;;;;5033628;28;20232;-72
2023/05/18 10:10:53;;;;;;;6.83;2.83;;;;;;;;;;5034084;28;20174;-72
2023/05/18 10:13:19;;;;;;;7.00;2.80;;;;;;;;;;5032672;28;20264;-72
2023/05/18 10:15:55;;;;;;;6.37;2.70;;;;;;;;;;5050447;28;20816;-72
2023/05/18 10:18:28;;;;;;;6.43;2.47;;;;;;;;;;5037747;28;20210;-72
2023/05/18 10:20:56;;;;;;;4.83;2.30;;;;;;;;;;5033678;28;20253;-72
2023/05/18 10:23:23;;;;;;;6.07;2.53;;;;;;;;;;5033124;28;20186;-72
2023/05/18 10:25:50;;;;;;;9.07;2.70;;;;;;;;;;5033324;28;20226;-71
2023/05/18 10:28:19;;;;;;;6.80;2.80;;;;;;;;;;5033749;28;20189;-72
2023/05/18 10:30:46;;;;;;;8.30;2.60;;;;;;;;;;5036897;28;20206;-72
2023/05/18 10:33:12;;;;;;;5.27;2.40;;;;;;;;;;5033209;28;20604;-72
2023/05/18 10:35:38;;;;;;;4.27;2.20;;;;;;;;;;5033327;28;20186;-72
2023/05/18 10:38:06;;;;;;;8.07;2.50;;;;;;;;;;5033764;28;20282;-72
2023/05/18 10:40:33;;;;;;;7.50;2.50;;;;;;;;;;5015691;28;20182;-72
2023/05/18 10:43:01;;;;;;;8.83;2.70;;;;;;;;;;5032786;28;20258;-72
2023/05/18 10:45:28;;;;;;;8.57;3.03;;;;;;;;;;5016105;28;20205;-72
2023/05/18 10:47:54;;;;;;;8.97;2.83;;;;;;;;;;5033395;28;20179;-72
2023/05/18 10:50:24;;;;;;;4.97;2.37;;;;;;;;;;5031414;28;20551;-72
2023/05/18 10:52:51;;;;;;;10.17;2.63;;;;;;;;;;5025868;28;20182;-72
2023/05/18 10:55:18;;;;;;;6.53;2.40;;;;;;;;;;5033273;28;20191;-72
2023/05/18 10:57:46;;;;;;;4.23;2.27;;;;;;;;;;5032729;28;20688;-72
2023/05/18 11:00:13;;;;;;;6.07;2.47;;;;;;;;;;5014906;28;20213;-72
2023/05/18 11:02:41;;;;;;;6.80;2.63;;;;;;;;;;5033180;28;20560;-72
2023/05/18 11:05:08;;;;;;;7.07;2.73;;;;;;;;;;5033357;28;20246;-72
2023/05/18 11:07:34;;;;;;;5.77;2.30;;;;;;;;;;5033252;28;20257;-72
2023/05/18 11:10:07;;;;;;;4.70;2.27;;;;;;;;;;5031980;28;20210;-72
2023/05/18 11:12:33;;;;;;;5.83;2.40;;;;;;;;;;5015296;28;20186;-72
2023/05/18 11:15:00;;;;;;;5.03;2.50;;;;;;;;;;5042418;28;20661;-72
2023/05/18 11:17:28;;;;;;;5.07;2.57;;;;;;;;;;5032446;28;20218;-72
2023/05/18 11:20:06;;;;;;;7.10;2.50;;;;;;;;;;5032946;28;20181;-72
2023/05/18 11:22:46;;;;;;;8.83;3.60;;;;;;;;;;5037299;28;20194;-72
2023/05/18 11:25:42;;;;;;;11.87;7.63;;;;;;;;;;5032606;28;20201;-72
2023/05/18 11:28:10;;;;;;;13.57;5.67;;;;;;;;;;5004354;28;20592;-72
2023/05/18 11:30:36;;;;;;;7.20;3.30;;;;;;;;;;5033189;28;20240;-72
2023/05/18 11:33:08;;;;;;;13.17;8.20;;;;;;;;;;5032549;28;20182;-72
2023/05/18 11:35:54;;;;;;;9.10;4.40;;;;;;;;;;5032827;28;20226;-72
2023/05/18 11:38:20;;;;;;;9.20;3.20;;;;;;;;;;5025486;28;20300;-72
2023/05/18 11:40:47;;;;;;;7.70;4.13;;;;;;;;;;5032018;28;20205;-72
2023/05/18 11:43:20;;;;;;;8.20;5.37;;;;;;;;;;5018744;28;20191;-72
2023/05/18 11:45:56;;;;;;;6.80;3.23;;;;;;;;;;5031743;28;20742;-72
2023/05/18 11:48:23;;;;;;;7.67;3.70;;;;;;;;;;5032453;28;20174;-72
2023/05/18 11:50:52;;;;;;;6.40;2.40;;;;;;;;;;5032303;28;20186;-72
2023/05/18 11:53:18;;;;;;;4.57;2.77;;;;;;;;;;5031381;28;20605;-72
2023/05/18 11:55:45;;;;;;;12.37;8.10;;;;;;;;;;5032339;28;20232;-72
2023/05/18 11:58:17;;;;;;;11.23;6.70;;;;;;;;;;5032278;28;20218;-72
2023/05/18 12:00:45;;;;;;;8.20;3.60;;;;;;;;;;5034208;28;20528;-72
2023/05/18 12:03:12;;;;;;;9.27;4.60;;;;;;;;;;5014055;28;20183;-72
2023/05/18 12:05:40;;;;;;;5.97;3.00;;;;;;;;;;5032190;28;20177;-72
2023/05/18 12:08:08;;;;;;;7.60;3.07;;;;;;;;;;5032057;28;20218;-72
2023/05/18 12:10:37;;;;;;;13.30;11.07;;;;;;;;;;5031812;28;20192;-72
2023/05/18 12:13:03;;;;;;;14.73;11.53;;;;;;;;;;5031144;28;20299;-72
2023/05/18 12:15:31;;;;;;;6.87;3.50;;;;;;;;;;5031903;28;20546;-72
2023/05/18 12:17:58;;;;;;;6.47;2.50;;;;;;;;;;5027492;28;20210;-72
2023/05/18 12:20:25;;;;;;;8.27;2.63;;;;;;;;;;5031762;28;20180;-72
2023/05/18 12:22:52;;;;;;;7.03;2.30;;;;;;;;;;5042109;28;20187;-72
2023/05/18 12:25:22;;;;;;;7.50;2.57;;;;;;;;;;5035789;28;20627;-72
2023/05/18 12:27:49;;;;;;;4.57;2.20;;;;;;;;;;5032089;28;20230;-72
2023/05/18 12:30:15;;;;;;;7.40;2.50;;;;;;;;;;5032020;28;20187;-72
2023/05/18 12:32:47;;;;;;;5.93;2.33;;;;;;;;;;5020932;28;20198;-72
2023/05/18 12:35:13;;;;;;;5.60;2.33;;;;;;;;;;5030664;28;20244;-73
2023/05/18 12:37:43;;;;;;;5.77;2.43;;;;;;;;;;5027945;28;20225;-73
2023/05/18 12:40:10;;;;;;;5.37;2.20;;;;;;;;;;5048095;28;20190;-74
2023/05/18 12:42:37;;;;;;;5.93;2.27;;;;;;;;;;5029696;28;20199;-73
2023/05/18 12:45:03;;;;;;;6.13;2.10;;;;;;;;;;5031441;28;20303;-74
2023/05/18 12:47:32;;;;;;;7.27;2.23;;;;;;;;;;5031013;28;20293;-73
2023/05/18 12:50:01;;;;;;;5.37;2.20;;;;;;;;;;5027258;28;20272;-73
2023/05/18 12:52:27;;;;;;;6.70;2.40;;;;;;;;;;5030073;28;20182;-73
2023/05/18 12:54:58;;;;;;;4.47;2.30;;;;;;;;;;5031132;28;20199;-75
2023/05/18 12:57:25;;;;;;;5.80;2.17;;;;;;;;;;5013403;28;20212;-74
2023/05/18 12:59:55;;;;;;;8.00;2.40;;;;;;;;;;5031060;28;20185;-77
2023/05/18 13:02:26;;;;;;;6.57;2.10;;;;;;;;;;5030689;28;20738;-76
2023/05/18 13:05:10;;;;;;;4.23;1.90;;;;;;;;;;5015322;28;20189;-79
2023/05/18 13:07:40;;;;;;;5.07;2.23;;;;;;;;;;5008195;28;20207;-75
2023/05/18 13:10:07;;;;;;;5.47;2.43;;;;;;;;;;5030566;28;20194;-76
2023/05/18 13:12:40;;;;;;;7.83;2.43;;;;;;;;;;5012974;28;20198;-78
2023/05/18 13:15:14;;;;;;;5.90;2.40;;;;;;;;;;5031273;28;20261;-77
2023/05/18 13:17:58;;;;;;;6.00;2.30;;;;;;;;;;5030540;28;20221;-76
2023/05/18 13:20:30;;;;;;;5.27;2.30;;;;;;;;;;5028507;28;20266;-77
2023/05/18 13:22:58;;;;;;;4.40;1.90;;;;;;;;;;5029849;28;20200;-75
2023/05/18 13:25:25;;;;;;;6.03;2.50;;;;;;;;;;5030549;28;20620;-78
2023/05/18 13:27:53;;;;;;;6.27;2.17;;;;;;;;;;5031645;28;20543;-76
2023/05/18 13:30:20;;;;;;;4.13;2.33;;;;;;;;;;5030605;28;20190;-79
2023/05/18 13:32:46;;;;;;;6.77;2.40;;;;;;;;;;5030902;28;20564;-77
2023/05/18 13:35:12;;;;;;;5.03;2.33;;;;;;;;;;5012360;28;20189;-76
2023/05/18 13:37:40;;;;;;;4.20;2.47;;;;;;;;;;5030357;28;20202;-76
2023/05/18 13:40:06;;;;;;;4.80;2.90;;;;;;;;;;5028054;28;20186;-76
2023/05/18 13:42:33;;;;;;;4.23;2.30;;;;;;;;;;5040191;28;20187;-76
2023/05/18 13:44:59;;;;;;;5.00;2.13;;;;;;;;;;5026789;28;20187;-76
2023/05/18 13:47:25;;;;;;;5.83;2.33;;;;;;;;;;5028560;28;20224;-76
2023/05/18 13:49:51;;;;;;;4.93;2.13;;;;;;;;;;5030455;28;20196;-76
2023/05/18 13:52:17;;;;;;;7.97;2.33;;;;;;;;;;5029860;28;20647;-75
2023/05/18 13:54:43;;;;;;;4.73;2.40;;;;;;;;;;5030527;28;20247;-75
2023/05/18 13:57:09;;;;;;;5.63;2.20;;;;;;;;;;5030077;28;20209;-75
2023/05/18 13:59:35;;;;;;;6.17;2.40;;;;;;;;;;5030949;28;20662;-76
2023/05/18 14:02:01;;;;;;;6.77;2.40;;;;;;;;;;5031788;28;20200;-75
2023/05/18 14:04:28;;;;;;;6.60;2.20;;;;;;;;;;5030796;28;20207;-75
2023/05/18 14:06:54;;;;;;;6.10;2.40;;;;;;;;;;5034473;28;20305;-76
2023/05/18 14:09:21;;;;;;;4.93;2.37;;;;;;;;;;5035119;28;20196;-75
2023/05/18 14:11:47;;;;;;;6.43;2.30;;;;;;;;;;5018277;28;20178;-75
2023/05/18 14:14:13;;;;;;;4.93;2.30;;;;;;;;;;5034603;28;20232;-76
2023/05/18 14:16:39;;;;;;;5.50;2.30;;;;;;;;;;5038552;28;20218;-75
2023/05/18 14:19:05;;;;;;;6.03;2.20;;;;;;;;;;5024194;28;20193;-76
2023/05/18 14:21:31;;;;;;;5.50;2.53;;;;;;;;;;5042493;28;20285;-76
2023/05/18 14:24:02;;;;;;;3.87;2.10;;;;;;;;;;5033156;28;20217;-76
2023/05/18 14:26:28;;;;;;;4.23;1.93;;;;;;;;;;5017656;28;20285;-76
2023/05/18 14:28:55;;;;;;;5.00;2.40;;;;;;;;;;5031497;28;20191;-77
2023/05/18 14:31:21;;;;;;;4.33;2.40;;;;;;;;;;5029106;28;21637;-77
2023/05/18 14:33:47;;;;;;;8.90;3.03;;;;;;;;;;5010619;28;20201;-77
2023/05/18 14:36:13;;;;;;;5.43;2.40;;;;;;;;;;5031314;28;20486;-76
2023/05/18 14:38:40;;;;;;;3.43;2.17;;;;;;;;;;5030349;28;20351;-76
2023/05/18 14:41:06;;;;;;;4.17;2.10;;;;;;;;;;5031219;28;20212;-81
2023/05/18 14:43:32;;;;;;;6.00;2.40;;;;;;;;;;5032140;28;20644;-75
2023/05/18 14:45:58;;;;;;;4.00;2.23;;;;;;;;;;5033839;28;20214;-75